sensor_id;sensor_type;location;lat;lon;timestamp;P1;durP1;ratioP1;P2;durP2;ratioP2
41059;SDS011;26811;53.160;8.202;2023-04-15T00:02:15;12.18;;;7.40;;
41059;SDS011;26811;53.160;8.202;2023-04-15T00:07:17;8.85;;;6.80;;
41059;SDS011;26811;53.160;8.202;2023-04-15T00:12:17;12.02;;;7.03;;
41059;SDS011;26811;53.160;8.202;2023-04-15T00:17:18;13.20;;;7.82;;
41059;SDS011;26811;53.160;8.202;2023-04-15T00:22:18;13.60;;;7.32;;
41059;SDS011;26811;53.160;8.202;2023-04-15T00:27:19;11.27;;;7.80;;
41059;SDS011;26811;53.160;8.202;2023-04-15T00:32:20;12.63;;;8.25;;
41059;SDS011;26811;53.160;8.202;2023-04-15T00:37:20;12.48;;;7.97;;
41059;SDS011;26811;53.160;8.202;2023-04-15T00:42:21;11.90;;;7.60;;
41059;SDS011;26811;53.160;8.202;2023-04-15T00:47:23;12.48;;;8.55;;
41059;SDS011;26811;53.160;8.202;2023-04-15T00:52:25;11.27;;;8.02;;
41059;SDS011;26811;53.160;8.202;2023-04-15T00:57:26;16.90;;;8.60;;
41059;SDS011;26811;53.160;8.202;2023-04-15T01:02:28;12.48;;;8.02;;
41059;SDS011;26811;53.160;8.202;2023-04-15T01:07:28;13.30;;;8.13;;
41059;SDS011;26811;53.160;8.202;2023-04-15T01:12:30;12.02;;;8.18;;
41059;SDS011;26811;53.160;8.202;2023-04-15T01:17:32;13.75;;;9.27;;
41059;SDS011;26811;53.160;8.202;2023-04-15T01:22:32;12.57;;;8.88;;
41059;SDS011;26811;53.160;8.202;2023-04-15T01:27:33;18.60;;;10.45;;
41059;SDS011;26811;53.160;8.202;2023-04-15T01:32:37;17.63;;;10.50;;
41059;SDS011;26811;53.160;8.202;2023-04-15T01:37:37;17.38;;;10.75;;
41059;SDS011;26811;53.160;8.202;2023-04-15T01:42:38;19.40;;;11.43;;
41059;SDS011;26811;53.160;8.202;2023-04-15T01:47:38;25.83;;;12.00;;
41059;SDS011;26811;53.160;8.202;2023-04-15T01:52:39;18.65;;;12.15;;
41059;SDS011;26811;53.160;8.202;2023-04-15T01:57:40;24.45;;;12.88;;
41059;SDS011;26811;53.160;8.202;2023-04-15T02:02:40;23.70;;;13.93;;
41059;SDS011;26811;53.160;8.202;2023-04-15T02:07:41;21.70;;;12.68;;
41059;SDS011;26811;53.160;8.202;2023-04-15T02:12:42;23.92;;;12.75;;
41059;SDS011;26811;53.160;8.202;2023-04-15T02:17:43;21.83;;;12.45;;
41059;SDS011;26811;53.160;8.202;2023-04-15T02:22:44;21.27;;;12.60;;
41059;SDS011;26811;53.160;8.202;2023-04-15T02:27:46;22.20;;;12.65;;
41059;SDS011;26811;53.160;8.202;2023-04-15T02:32:46;19.27;;;11.20;;
41059;SDS011;26811;53.160;8.202;2023-04-15T02:37:47;22.63;;;12.27;;
41059;SDS011;26811;53.160;8.202;2023-04-15T02:42:47;22.45;;;12.15;;
41059;SDS011;26811;53.160;8.202;2023-04-15T02:47:48;20.25;;;12.02;;
41059;SDS011;26811;53.160;8.202;2023-04-15T02:52:48;26.52;;;13.80;;
41059;SDS011;26811;53.160;8.202;2023-04-15T02:57:49;26.27;;;14.60;;
41059;SDS011;26811;53.160;8.202;2023-04-15T03:02:50;24.98;;;14.27;;
41059;SDS011;26811;53.160;8.202;2023-04-15T03:07:55;20.65;;;13.00;;
41059;SDS011;26811;53.160;8.202;2023-04-15T03:12:55;25.88;;;13.05;;
41059;SDS011;26811;53.160;8.202;2023-04-15T03:17:56;25.10;;;12.95;;
41059;SDS011;26811;53.160;8.202;2023-04-15T03:22:56;28.23;;;14.05;;
41059;SDS011;26811;53.160;8.202;2023-04-15T03:27:57;21.83;;;12.27;;
41059;SDS011;26811;53.160;8.202;2023-04-15T03:32:58;18.90;;;11.50;;
41059;SDS011;26811;53.160;8.202;2023-04-15T03:37:59;20.17;;;10.82;;
41059;SDS011;26811;53.160;8.202;2023-04-15T03:43:00;19.75;;;10.90;;
41059;SDS011;26811;53.160;8.202;2023-04-15T03:48:00;18.90;;;10.80;;
41059;SDS011;26811;53.160;8.202;2023-04-15T03:53:01;18.67;;;10.35;;
41059;SDS011;26811;53.160;8.202;2023-04-15T03:58:01;20.85;;;12.07;;
41059;SDS011;26811;53.160;8.202;2023-04-15T04:03:02;18.08;;;10.63;;
41059;SDS011;26811;53.160;8.202;2023-04-15T04:08:02;17.80;;;10.88;;
41059;SDS011;26811;53.160;8.202;2023-04-15T04:13:03;20.52;;;11.20;;
41059;SDS011;26811;53.160;8.202;2023-04-15T04:18:04;16.48;;;10.20;;
41059;SDS011;26811;53.160;8.202;2023-04-15T04:23:04;20.02;;;10.82;;
41059;SDS011;26811;53.160;8.202;2023-04-15T04:28:05;19.33;;;11.05;;
41059;SDS011;26811;53.160;8.202;2023-04-15T04:33:06;19.90;;;11.70;;
41059;SDS011;26811;53.160;8.202;2023-04-15T04:38:06;21.58;;;11.40;;
41059;SDS011;26811;53.160;8.202;2023-04-15T04:43:07;17.80;;;10.85;;
41059;SDS011;26811;53.160;8.202;2023-04-15T04:48:08;20.58;;;11.15;;
41059;SDS011;26811;53.160;8.202;2023-04-15T04:53:09;21.30;;;12.05;;
41059;SDS011;26811;53.160;8.202;2023-04-15T04:58:10;21.55;;;11.90;;
41059;SDS011;26811;53.160;8.202;2023-04-15T05:03:10;20.05;;;12.60;;
41059;SDS011;26811;53.160;8.202;2023-04-15T05:08:11;20.08;;;11.73;;
41059;SDS011;26811;53.160;8.202;2023-04-15T05:13:11;22.05;;;11.80;;
41059;SDS011;26811;53.160;8.202;2023-04-15T05:18:12;22.13;;;12.57;;
41059;SDS011;26811;53.160;8.202;2023-04-15T05:23:12;19.02;;;11.55;;
41059;SDS011;26811;53.160;8.202;2023-04-15T05:28:13;22.52;;;11.93;;
41059;SDS011;26811;53.160;8.202;2023-04-15T05:33:13;21.38;;;12.35;;
41059;SDS011;26811;53.160;8.202;2023-04-15T05:38:14;18.42;;;10.77;;
41059;SDS011;26811;53.160;8.202;2023-04-15T05:43:15;18.10;;;11.15;;
41059;SDS011;26811;53.160;8.202;2023-04-15T05:48:15;19.38;;;11.57;;
41059;SDS011;26811;53.160;8.202;2023-04-15T05:53:16;18.88;;;11.13;;
41059;SDS011;26811;53.160;8.202;2023-04-15T05:58:16;18.45;;;10.98;;
41059;SDS011;26811;53.160;8.202;2023-04-15T06:03:17;19.92;;;11.38;;
41059;SDS011;26811;53.160;8.202;2023-04-15T06:08:17;22.30;;;11.85;;
41059;SDS011;26811;53.160;8.202;2023-04-15T06:13:18;20.70;;;11.95;;
41059;SDS011;26811;53.160;8.202;2023-04-15T06:18:18;20.25;;;11.73;;
41059;SDS011;26811;53.160;8.202;2023-04-15T06:23:19;21.20;;;11.73;;
41059;SDS011;26811;53.160;8.202;2023-04-15T06:28:20;23.45;;;11.90;;
41059;SDS011;26811;53.160;8.202;2023-04-15T06:33:20;20.20;;;11.07;;
41059;SDS011;26811;53.160;8.202;2023-04-15T06:38:21;25.13;;;11.70;;
41059;SDS011;26811;53.160;8.202;2023-04-15T06:43:21;22.38;;;12.00;;
41059;SDS011;26811;53.160;8.202;2023-04-15T06:48:22;22.08;;;12.38;;
41059;SDS011;26811;53.160;8.202;2023-04-15T06:53:26;22.08;;;11.93;;
41059;SDS011;26811;53.160;8.202;2023-04-15T06:58:29;21.75;;;11.38;;
41059;SDS011;26811;53.160;8.202;2023-04-15T07:03:30;23.90;;;11.52;;
41059;SDS011;26811;53.160;8.202;2023-04-15T07:08:31;16.70;;;9.30;;
41059;SDS011;26811;53.160;8.202;2023-04-15T07:13:33;15.35;;;8.60;;
41059;SDS011;26811;53.160;8.202;2023-04-15T07:18:33;13.82;;;8.57;;
41059;SDS011;26811;53.160;8.202;2023-04-15T07:23:34;14.60;;;8.02;;
41059;SDS011;26811;53.160;8.202;2023-04-15T07:28:36;13.32;;;8.13;;
41059;SDS011;26811;53.160;8.202;2023-04-15T07:33:36;12.13;;;7.43;;
41059;SDS011;26811;53.160;8.202;2023-04-15T07:38:37;12.68;;;7.85;;
41059;SDS011;26811;53.160;8.202;2023-04-15T07:43:38;14.68;;;7.65;;
41059;SDS011;26811;53.160;8.202;2023-04-15T07:48:39;14.43;;;7.97;;
41059;SDS011;26811;53.160;8.202;2023-04-15T07:53:39;13.02;;;7.68;;
41059;SDS011;26811;53.160;8.202;2023-04-15T07:58:41;15.00;;;7.32;;
41059;SDS011;26811;53.160;8.202;2023-04-15T08:03:42;13.20;;;7.00;;
41059;SDS011;26811;53.160;8.202;2023-04-15T08:08:43;12.20;;;7.53;;
41059;SDS011;26811;53.160;8.202;2023-04-15T08:13:43;12.95;;;6.70;;
41059;SDS011;26811;53.160;8.202;2023-04-15T08:18:44;9.10;;;6.80;;
41059;SDS011;26811;53.160;8.202;2023-04-15T08:23:50;10.27;;;6.18;;
41059;SDS011;26811;53.160;8.202;2023-04-15T08:28:51;8.80;;;5.55;;
41059;SDS011;26811;53.160;8.202;2023-04-15T08:33:52;7.95;;;5.32;;
41059;SDS011;26811;53.160;8.202;2023-04-15T08:38:54;8.75;;;5.15;;
41059;SDS011;26811;53.160;8.202;2023-04-15T08:44:00;7.68;;;4.50;;
41059;SDS011;26811;53.160;8.202;2023-04-15T08:49:03;8.85;;;5.00;;
41059;SDS011;26811;53.160;8.202;2023-04-15T08:54:04;6.82;;;4.47;;
41059;SDS011;26811;53.160;8.202;2023-04-15T08:59:06;6.25;;;4.40;;
41059;SDS011;26811;53.160;8.202;2023-04-15T09:04:07;9.35;;;4.68;;
41059;SDS011;26811;53.160;8.202;2023-04-15T09:09:07;8.60;;;4.72;;
41059;SDS011;26811;53.160;8.202;2023-04-15T09:14:08;8.10;;;4.70;;
41059;SDS011;26811;53.160;8.202;2023-04-15T09:19:21;7.47;;;5.15;;
41059;SDS011;26811;53.160;8.202;2023-04-15T09:24:23;8.23;;;4.63;;
41059;SDS011;26811;53.160;8.202;2023-04-15T09:29:26;9.00;;;4.23;;
41059;SDS011;26811;53.160;8.202;2023-04-15T09:34:35;8.65;;;5.05;;
41059;SDS011;26811;53.160;8.202;2023-04-15T09:39:47;6.68;;;4.53;;
41059;SDS011;26811;53.160;8.202;2023-04-15T09:44:51;6.97;;;4.75;;
41059;SDS011;26811;53.160;8.202;2023-04-15T09:49:55;7.07;;;4.97;;
41059;SDS011;26811;53.160;8.202;2023-04-15T09:54:57;9.13;;;5.20;;
41059;SDS011;26811;53.160;8.202;2023-04-15T09:59:59;6.22;;;4.50;;
41059;SDS011;26811;53.160;8.202;2023-04-15T10:05:02;7.63;;;4.15;;
41059;SDS011;26811;53.160;8.202;2023-04-15T10:10:03;7.22;;;4.55;;
41059;SDS011;26811;53.160;8.202;2023-04-15T10:15:05;7.32;;;4.10;;
41059;SDS011;26811;53.160;8.202;2023-04-15T10:20:10;9.45;;;4.13;;
41059;SDS011;26811;53.160;8.202;2023-04-15T10:25:14;9.48;;;4.20;;
41059;SDS011;26811;53.160;8.202;2023-04-15T10:30:15;5.45;;;4.13;;
41059;SDS011;26811;53.160;8.202;2023-04-15T10:35:16;8.48;;;3.90;;
41059;SDS011;26811;53.160;8.202;2023-04-15T10:40:23;8.70;;;4.32;;
41059;SDS011;26811;53.160;8.202;2023-04-15T10:45:34;4.80;;;3.80;;
41059;SDS011;26811;53.160;8.202;2023-04-15T10:50:36;7.15;;;3.83;;
41059;SDS011;26811;53.160;8.202;2023-04-15T10:55:36;5.53;;;3.97;;
41059;SDS011;26811;53.160;8.202;2023-04-15T11:00:37;8.43;;;3.90;;
41059;SDS011;26811;53.160;8.202;2023-04-15T11:15:43;7.05;;;4.15;;
41059;SDS011;26811;53.160;8.202;2023-04-15T11:25:49;8.38;;;4.03;;
41059;SDS011;26811;53.160;8.202;2023-04-15T11:30:50;4.65;;;4.03;;
41059;SDS011;26811;53.160;8.202;2023-04-15T11:35:53;7.35;;;4.32;;
41059;SDS011;26811;53.160;8.202;2023-04-15T11:40:54;5.57;;;4.05;;
41059;SDS011;26811;53.160;8.202;2023-04-15T11:45:58;7.35;;;4.32;;
41059;SDS011;26811;53.160;8.202;2023-04-15T11:51:01;10.52;;;5.38;;
41059;SDS011;26811;53.160;8.202;2023-04-15T11:56:03;8.73;;;5.05;;
41059;SDS011;26811;53.160;8.202;2023-04-15T12:01:05;12.10;;;5.47;;
41059;SDS011;26811;53.160;8.202;2023-04-15T12:11:10;14.68;;;6.90;;
41059;SDS011;26811;53.160;8.202;2023-04-15T12:16:11;12.15;;;6.63;;
41059;SDS011;26811;53.160;8.202;2023-04-15T12:21:11;14.95;;;7.38;;
41059;SDS011;26811;53.160;8.202;2023-04-15T12:26:12;14.43;;;7.50;;
41059;SDS011;26811;53.160;8.202;2023-04-15T12:31:13;16.67;;;8.45;;
41059;SDS011;26811;53.160;8.202;2023-04-15T12:36:14;13.68;;;7.75;;
41059;SDS011;26811;53.160;8.202;2023-04-15T12:41:15;15.82;;;8.70;;
41059;SDS011;26811;53.160;8.202;2023-04-15T12:46:16;19.42;;;8.82;;
41059;SDS011;26811;53.160;8.202;2023-04-15T12:51:16;24.65;;;11.07;;
41059;SDS011;26811;53.160;8.202;2023-04-15T12:56:17;23.25;;;11.23;;
41059;SDS011;26811;53.160;8.202;2023-04-15T13:01:17;29.60;;;12.65;;
41059;SDS011;26811;53.160;8.202;2023-04-15T13:06:18;28.60;;;12.68;;
41059;SDS011;26811;53.160;8.202;2023-04-15T13:11:18;34.95;;;13.15;;
41059;SDS011;26811;53.160;8.202;2023-04-15T13:16:19;32.60;;;13.35;;
41059;SDS011;26811;53.160;8.202;2023-04-15T13:21:20;34.55;;;15.00;;
41059;SDS011;26811;53.160;8.202;2023-04-15T13:26:21;45.50;;;16.90;;
41059;SDS011;26811;53.160;8.202;2023-04-15T13:31:22;43.53;;;16.05;;
41059;SDS011;26811;53.160;8.202;2023-04-15T13:36:22;40.17;;;15.73;;
41059;SDS011;26811;53.160;8.202;2023-04-15T13:41:23;46.78;;;17.70;;
41059;SDS011;26811;53.160;8.202;2023-04-15T13:46:23;52.90;;;18.02;;
41059;SDS011;26811;53.160;8.202;2023-04-15T13:51:25;52.78;;;18.30;;
41059;SDS011;26811;53.160;8.202;2023-04-15T13:56:26;50.60;;;19.15;;
41059;SDS011;26811;53.160;8.202;2023-04-15T14:01:26;48.88;;;18.90;;
41059;SDS011;26811;53.160;8.202;2023-04-15T14:06:27;64.47;;;21.88;;
41059;SDS011;26811;53.160;8.202;2023-04-15T14:11:30;54.67;;;19.92;;
41059;SDS011;26811;53.160;8.202;2023-04-15T14:16:31;70.30;;;21.77;;
41059;SDS011;26811;53.160;8.202;2023-04-15T14:21:32;69.32;;;24.83;;
41059;SDS011;26811;53.160;8.202;2023-04-15T14:26:33;70.72;;;26.45;;
41059;SDS011;26811;53.160;8.202;2023-04-15T14:31:33;65.78;;;25.60;;
41059;SDS011;26811;53.160;8.202;2023-04-15T14:36:34;70.75;;;25.73;;
41059;SDS011;26811;53.160;8.202;2023-04-15T14:41:34;65.57;;;25.15;;
41059;SDS011;26811;53.160;8.202;2023-04-15T14:46:35;73.30;;;26.60;;
41059;SDS011;26811;53.160;8.202;2023-04-15T14:51:36;70.82;;;28.33;;
41059;SDS011;26811;53.160;8.202;2023-04-15T14:56:37;65.15;;;26.77;;
41059;SDS011;26811;53.160;8.202;2023-04-15T15:01:37;73.57;;;29.05;;
41059;SDS011;26811;53.160;8.202;2023-04-15T15:06:38;63.88;;;28.48;;
41059;SDS011;26811;53.160;8.202;2023-04-15T15:11:39;69.18;;;29.85;;
41059;SDS011;26811;53.160;8.202;2023-04-15T15:16:40;69.75;;;30.17;;
41059;SDS011;26811;53.160;8.202;2023-04-15T15:21:41;68.28;;;29.25;;
41059;SDS011;26811;53.160;8.202;2023-04-15T15:26:41;64.18;;;29.92;;
41059;SDS011;26811;53.160;8.202;2023-04-15T15:31:42;66.40;;;30.38;;
41059;SDS011;26811;53.160;8.202;2023-04-15T15:36:42;61.53;;;30.13;;
41059;SDS011;26811;53.160;8.202;2023-04-15T15:41:43;57.10;;;29.92;;
41059;SDS011;26811;53.160;8.202;2023-04-15T15:46:43;63.72;;;32.38;;
41059;SDS011;26811;53.160;8.202;2023-04-15T15:51:44;63.00;;;31.88;;
41059;SDS011;26811;53.160;8.202;2023-04-15T15:56:45;66.07;;;29.88;;
41059;SDS011;26811;53.160;8.202;2023-04-15T16:01:46;65.90;;;30.52;;
41059;SDS011;26811;53.160;8.202;2023-04-15T16:06:47;62.33;;;30.45;;
41059;SDS011;26811;53.160;8.202;2023-04-15T16:11:47;60.92;;;31.60;;
41059;SDS011;26811;53.160;8.202;2023-04-15T16:16:48;60.35;;;31.50;;
41059;SDS011;26811;53.160;8.202;2023-04-15T16:21:48;59.78;;;31.73;;
41059;SDS011;26811;53.160;8.202;2023-04-15T16:26:49;62.28;;;30.73;;
41059;SDS011;26811;53.160;8.202;2023-04-15T16:31:50;58.95;;;30.00;;
41059;SDS011;26811;53.160;8.202;2023-04-15T16:36:50;62.92;;;29.60;;
41059;SDS011;26811;53.160;8.202;2023-04-15T16:41:52;64.28;;;31.35;;
41059;SDS011;26811;53.160;8.202;2023-04-15T16:46:52;53.70;;;28.85;;
41059;SDS011;26811;53.160;8.202;2023-04-15T16:51:53;55.70;;;28.38;;
41059;SDS011;26811;53.160;8.202;2023-04-15T16:56:55;58.28;;;29.23;;
41059;SDS011;26811;53.160;8.202;2023-04-15T17:01:57;52.67;;;28.60;;
41059;SDS011;26811;53.160;8.202;2023-04-15T17:06:58;58.80;;;28.23;;
41059;SDS011;26811;53.160;8.202;2023-04-15T17:11:58;61.25;;;28.95;;
41059;SDS011;26811;53.160;8.202;2023-04-15T17:17:00;54.05;;;27.25;;
41059;SDS011;26811;53.160;8.202;2023-04-15T17:22:00;51.03;;;26.98;;
41059;SDS011;26811;53.160;8.202;2023-04-15T17:27:01;44.08;;;26.30;;
41059;SDS011;26811;53.160;8.202;2023-04-15T17:32:01;49.85;;;26.27;;
41059;SDS011;26811;53.160;8.202;2023-04-15T17:37:02;47.72;;;26.17;;
41059;SDS011;26811;53.160;8.202;2023-04-15T17:42:03;52.20;;;26.05;;
41059;SDS011;26811;53.160;8.202;2023-04-15T17:47:03;50.15;;;27.25;;
41059;SDS011;26811;53.160;8.202;2023-04-15T17:52:04;47.30;;;25.50;;
41059;SDS011;26811;53.160;8.202;2023-04-15T17:57:05;49.88;;;26.17;;
41059;SDS011;26811;53.160;8.202;2023-04-15T18:02:05;51.20;;;26.52;;
41059;SDS011;26811;53.160;8.202;2023-04-15T18:07:06;50.38;;;27.70;;
41059;SDS011;26811;53.160;8.202;2023-04-15T18:12:06;50.92;;;27.10;;
41059;SDS011;26811;53.160;8.202;2023-04-15T18:17:07;53.08;;;27.70;;
41059;SDS011;26811;53.160;8.202;2023-04-15T18:22:08;50.25;;;25.38;;
41059;SDS011;26811;53.160;8.202;2023-04-15T18:27:09;52.70;;;27.30;;
41059;SDS011;26811;53.160;8.202;2023-04-15T18:32:09;49.08;;;27.58;;
41059;SDS011;26811;53.160;8.202;2023-04-15T18:37:10;63.50;;;31.45;;
41059;SDS011;26811;53.160;8.202;2023-04-15T18:42:11;56.50;;;30.33;;
41059;SDS011;26811;53.160;8.202;2023-04-15T18:47:11;57.67;;;30.25;;
41059;SDS011;26811;53.160;8.202;2023-04-15T18:52:12;50.38;;;27.60;;
41059;SDS011;26811;53.160;8.202;2023-04-15T18:57:12;48.00;;;27.23;;
41059;SDS011;26811;53.160;8.202;2023-04-15T19:02:13;48.67;;;27.08;;
41059;SDS011;26811;53.160;8.202;2023-04-15T19:07:13;45.35;;;26.90;;
41059;SDS011;26811;53.160;8.202;2023-04-15T19:12:14;52.67;;;29.70;;
41059;SDS011;26811;53.160;8.202;2023-04-15T19:17:15;55.22;;;27.45;;
41059;SDS011;26811;53.160;8.202;2023-04-15T19:22:15;49.78;;;26.80;;
41059;SDS011;26811;53.160;8.202;2023-04-15T19:27:16;47.00;;;26.17;;
41059;SDS011;26811;53.160;8.202;2023-04-15T19:32:16;49.17;;;26.30;;
41059;SDS011;26811;53.160;8.202;2023-04-15T19:37:17;53.75;;;26.60;;
41059;SDS011;26811;53.160;8.202;2023-04-15T19:42:17;50.53;;;25.25;;
41059;SDS011;26811;53.160;8.202;2023-04-15T19:47:18;52.63;;;25.95;;
41059;SDS011;26811;53.160;8.202;2023-04-15T19:52:20;48.03;;;26.13;;
41059;SDS011;26811;53.160;8.202;2023-04-15T19:57:21;63.45;;;29.60;;
41059;SDS011;26811;53.160;8.202;2023-04-15T20:02:21;53.30;;;27.70;;
41059;SDS011;26811;53.160;8.202;2023-04-15T20:07:22;57.55;;;28.55;;
41059;SDS011;26811;53.160;8.202;2023-04-15T20:12:22;50.80;;;26.40;;
41059;SDS011;26811;53.160;8.202;2023-04-15T20:17:23;45.17;;;26.20;;
41059;SDS011;26811;53.160;8.202;2023-04-15T20:22:23;51.67;;;27.30;;
41059;SDS011;26811;53.160;8.202;2023-04-15T20:27:24;52.40;;;26.15;;
41059;SDS011;26811;53.160;8.202;2023-04-15T20:32:25;50.97;;;25.55;;
41059;SDS011;26811;53.160;8.202;2023-04-15T20:37:28;49.20;;;26.30;;
41059;SDS011;26811;53.160;8.202;2023-04-15T20:42:32;54.28;;;27.40;;
41059;SDS011;26811;53.160;8.202;2023-04-15T20:47:35;54.85;;;28.08;;
41059;SDS011;26811;53.160;8.202;2023-04-15T20:52:36;49.25;;;27.13;;
41059;SDS011;26811;53.160;8.202;2023-04-15T20:57:37;48.50;;;27.20;;
41059;SDS011;26811;53.160;8.202;2023-04-15T21:02:38;52.13;;;27.88;;
41059;SDS011;26811;53.160;8.202;2023-04-15T21:07:39;49.60;;;28.02;;
41059;SDS011;26811;53.160;8.202;2023-04-15T21:12:40;47.55;;;26.92;;
41059;SDS011;26811;53.160;8.202;2023-04-15T21:17:41;54.08;;;27.83;;
41059;SDS011;26811;53.160;8.202;2023-04-15T21:22:41;51.38;;;27.92;;
41059;SDS011;26811;53.160;8.202;2023-04-15T21:27:42;54.45;;;28.08;;
41059;SDS011;26811;53.160;8.202;2023-04-15T21:32:42;51.97;;;26.45;;
41059;SDS011;26811;53.160;8.202;2023-04-15T21:37:43;48.45;;;26.80;;
41059;SDS011;26811;53.160;8.202;2023-04-15T21:42:43;52.28;;;28.17;;
41059;SDS011;26811;53.160;8.202;2023-04-15T21:47:44;51.20;;;29.48;;
41059;SDS011;26811;53.160;8.202;2023-04-15T21:52:45;58.45;;;30.92;;
41059;SDS011;26811;53.160;8.202;2023-04-15T21:57:45;61.83;;;31.40;;
41059;SDS011;26811;53.160;8.202;2023-04-15T22:02:46;64.13;;;31.50;;
41059;SDS011;26811;53.160;8.202;2023-04-15T22:07:46;55.47;;;30.95;;
41059;SDS011;26811;53.160;8.202;2023-04-15T22:12:47;56.10;;;30.63;;
41059;SDS011;26811;53.160;8.202;2023-04-15T22:17:47;59.90;;;31.50;;
41059;SDS011;26811;53.160;8.202;2023-04-15T22:22:48;57.15;;;31.08;;
41059;SDS011;26811;53.160;8.202;2023-04-15T22:27:48;52.38;;;28.95;;
41059;SDS011;26811;53.160;8.202;2023-04-15T22:32:49;56.50;;;30.83;;
41059;SDS011;26811;53.160;8.202;2023-04-15T22:37:50;53.10;;;28.30;;
41059;SDS011;26811;53.160;8.202;2023-04-15T22:42:51;51.30;;;28.35;;
41059;SDS011;26811;53.160;8.202;2023-04-15T22:47:51;51.78;;;29.33;;
41059;SDS011;26811;53.160;8.202;2023-04-15T22:52:52;55.47;;;29.40;;
41059;SDS011;26811;53.160;8.202;2023-04-15T22:57:52;63.65;;;30.98;;
41059;SDS011;26811;53.160;8.202;2023-04-15T23:02:54;56.03;;;29.35;;
41059;SDS011;26811;53.160;8.202;2023-04-15T23:07:54;60.08;;;28.92;;
41059;SDS011;26811;53.160;8.202;2023-04-15T23:12:55;56.90;;;29.10;;
41059;SDS011;26811;53.160;8.202;2023-04-15T23:17:55;55.05;;;29.95;;
41059;SDS011;26811;53.160;8.202;2023-04-15T23:22:56;53.25;;;28.42;;
41059;SDS011;26811;53.160;8.202;2023-04-15T23:27:56;52.25;;;29.35;;
41059;SDS011;26811;53.160;8.202;2023-04-15T23:32:57;55.25;;;28.88;;
41059;SDS011;26811;53.160;8.202;2023-04-15T23:43:01;51.10;;;27.73;;
41059;SDS011;26811;53.160;8.202;2023-04-15T23:48:01;59.92;;;29.60;;
41059;SDS011;26811;53.160;8.202;2023-04-15T23:53:02;52.03;;;28.30;;
41059;SDS011;26811;53.160;8.202;2023-04-15T23:58:02;52.83;;;29.05;;
